createdAt,value
2022-10-04T00:01:53.924Z,102546.66
2022-10-04T00:04:40.761Z,102541.06
2022-10-04T00:07:18.537Z,102541.31
2022-10-04T00:09:49.863Z,102548.56
2022-10-04T00:12:28.345Z,102543.97
2022-10-04T00:15:02.344Z,102541.88
2022-10-04T00:17:37.002Z,102538.16
2022-10-04T00:20:41.775Z,102544.13
2022-10-04T00:23:23.319Z,102541.19
2022-10-04T00:25:52.163Z,102536.41
2022-10-04T00:28:21.605Z,102535.13
2022-10-04T00:31:13.092Z,102539.09
2022-10-04T00:33:47.901Z,102527.50
2022-10-04T00:36:26.430Z,102520.28
2022-10-04T00:39:04.251Z,102512.44
2022-10-04T00:41:51.881Z,102515.38
2022-10-04T00:44:27.936Z,102510.84
2022-10-04T00:46:56.926Z,102502.78
2022-10-04T00:49:29.486Z,102505.69
2022-10-04T00:52:10.490Z,102501.38
2022-10-04T00:54:44.399Z,102506.75
2022-10-04T00:57:32.034Z,102514.78
2022-10-04T01:00:03.715Z,102516.34
2022-10-04T01:02:46.009Z,102511.75
2022-10-04T01:05:26.366Z,102505.00
2022-10-04T01:08:04.511Z,102502.91
2022-10-04T01:10:42.062Z,102499.72
2022-10-04T01:13:22.235Z,102489.81
2022-10-04T01:15:59.417Z,102493.91
2022-10-04T01:18:25.747Z,102488.19
2022-10-04T01:21:21.196Z,102483.03
2022-10-04T01:23:57.481Z,102482.69
2022-10-04T01:26:26.868Z,102486.66
2022-10-04T01:28:59.755Z,102472.56
2022-10-04T01:31:27.424Z,102471.97
2022-10-04T01:33:55.627Z,102456.06
2022-10-04T01:36:22.492Z,102448.72
2022-10-04T01:38:49.632Z,102457.25
2022-10-04T01:41:19.896Z,102444.88
2022-10-04T01:43:52.705Z,102457.03
2022-10-04T01:46:27.393Z,102457.25
2022-10-04T01:48:57.015Z,102458.28
2022-10-04T01:51:33.809Z,102472.78
2022-10-04T01:54:05.165Z,102459.81
2022-10-04T01:56:46.758Z,102455.72
2022-10-04T01:59:25.545Z,102441.50
2022-10-04T02:02:07.724Z,102429.38
2022-10-04T02:04:38.662Z,102425.75
2022-10-04T02:07:12.453Z,102423.75
2022-10-04T02:09:43.632Z,102428.16
2022-10-04T02:12:16.261Z,102419.78
2022-10-04T02:14:53.091Z,102406.25
2022-10-04T02:17:30.291Z,102412.28
2022-10-04T02:19:58.008Z,102404.75
2022-10-04T02:22:25.852Z,102404.75
2022-10-04T02:24:54.874Z,102400.41
2022-10-04T02:27:27.512Z,102392.59
2022-10-04T02:30:04.220Z,102385.25
2022-10-04T02:32:50.593Z,102374.75
2022-10-04T02:35:18.315Z,102373.91
2022-10-04T02:37:45.996Z,102373.34
2022-10-04T02:40:16.067Z,102375.44
2022-10-04T02:42:57.419Z,102364.94
2022-10-04T02:45:33.303Z,102365.03
2022-10-04T02:48:12.606Z,102357.69
2022-10-04T02:50:50.342Z,102364.34
2022-10-04T02:53:26.997Z,102359.44
2022-10-04T02:55:55.849Z,102363.13
2022-10-04T02:58:25.422Z,102358.72
2022-10-04T03:00:58.508Z,102353.34
2022-10-04T03:03:28.221Z,102350.06
2022-10-04T03:05:57.204Z,102347.25
2022-10-04T03:08:24.212Z,102344.00
2022-10-04T03:10:50.972Z,102344.47
2022-10-04T03:13:20.036Z,102339.91
2022-10-04T03:15:49.352Z,102329.66
2022-10-04T03:18:16.917Z,102329.88
2022-10-04T03:20:43.997Z,102331.38
2022-10-04T03:23:12.482Z,102323.78
2022-10-04T03:25:51.184Z,102318.66
2022-10-04T03:28:18.004Z,102322.03
2022-10-04T03:30:46.503Z,102316.34
2022-10-04T03:33:21.504Z,102319.72
2022-10-04T03:35:51.739Z,102311.53
2022-10-04T03:38:19.206Z,102307.22
2022-10-04T03:40:52.923Z,102315.47
2022-10-04T03:43:24.332Z,102315.47
2022-10-04T03:45:52.317Z,102321.50
2022-10-04T03:48:28.989Z,102319.75
2022-10-04T03:50:56.442Z,102314.84
2022-10-04T03:53:30.486Z,102301.91
2022-10-04T03:56:03.425Z,102309.81
2022-10-04T03:58:31.497Z,102313.53
2022-10-04T04:01:10.778Z,102313.38
2022-10-04T04:04:00.662Z,102309.53
2022-10-04T04:06:34.928Z,102302.16
2022-10-04T04:09:04.580Z,102305.06
2022-10-04T04:11:31.059Z,102296.25
2022-10-04T04:14:17.312Z,102304.13
2022-10-04T04:16:43.782Z,102299.00
2022-10-04T04:19:13.412Z,102295.94
2022-10-04T04:21:41.385Z,102288.59
2022-10-04T04:24:19.630Z,102291.69
2022-10-04T04:26:49.996Z,102287.84
2022-10-04T04:29:26.712Z,102286.81
2022-10-04T04:31:59.741Z,102280.03
2022-10-04T04:34:34.960Z,102280.50
2022-10-04T04:37:04.731Z,102292.09
2022-10-04T04:39:40.890Z,102290.09
2022-10-04T04:42:10.348Z,102295.50
2022-10-04T04:44:40.232Z,102280.94
2022-10-04T04:47:10.147Z,102282.22
2022-10-04T04:49:40.148Z,102276.25
2022-10-04T04:52:16.773Z,102279.25
2022-10-04T04:54:46.940Z,102276.19
2022-10-04T04:57:17.304Z,102274.16
2022-10-04T04:59:47.793Z,102278.72
2022-10-04T05:02:28.993Z,102277.31
2022-10-04T05:05:34.448Z,102276.72
2022-10-04T05:08:20.648Z,102273.19
2022-10-04T05:10:57.990Z,102276.72
2022-10-04T05:13:33.595Z,102275.88
2022-10-04T05:16:01.185Z,102277.75
2022-10-04T05:18:30.673Z,102288.44
2022-10-04T05:21:03.755Z,102281.44
2022-10-04T05:23:30.274Z,102275.50
2022-10-04T05:26:00.167Z,102285.97
2022-10-04T05:28:27.105Z,102285.16
2022-10-04T05:31:02.254Z,102283.75
2022-10-04T05:33:44.661Z,102277.16
2022-10-04T05:36:11.150Z,102285.53
2022-10-04T05:38:57.613Z,102279.38
2022-10-04T05:41:47.346Z,102284.66
2022-10-04T05:44:26.307Z,102280.13
2022-10-04T05:46:58.727Z,102283.16
2022-10-04T05:49:28.478Z,102290.16
2022-10-04T05:52:00.916Z,102289.94
2022-10-04T05:54:31.288Z,102286.22
2022-10-04T05:57:10.826Z,102289.28
2022-10-04T06:00:00.510Z,102289.88
2022-10-04T06:02:48.121Z,102291.03
2022-10-04T06:05:26.923Z,102289.81
2022-10-04T06:08:01.978Z,102284.44
2022-10-04T06:10:57.381Z,102290.78
2022-10-04T06:13:36.051Z,102292.41
2022-10-04T06:16:30.321Z,102295.09
2022-10-04T06:19:29.717Z,102294.84
2022-10-04T06:22:16.995Z,102291.56
2022-10-04T06:24:51.594Z,102288.47
2022-10-04T06:27:27.084Z,102291.38
2022-10-04T06:30:04.998Z,102288.09
2022-10-04T06:32:49.733Z,102286.22
2022-10-04T06:35:32.403Z,102290.31
2022-10-04T06:38:08.734Z,102275.09
2022-10-04T06:40:54.127Z,102271.38
2022-10-04T06:44:00.283Z,102274.41
2022-10-04T06:46:49.867Z,102276.41
2022-10-04T06:49:44.964Z,102268.53
2022-10-04T06:52:25.371Z,102270.69
2022-10-04T06:55:23.399Z,102265.97
2022-10-04T06:58:13.807Z,102252.63
2022-10-04T07:01:29.692Z,102244.41
2022-10-04T07:04:20.500Z,102241.75
2022-10-04T07:07:15.856Z,102239.34
2022-10-04T07:09:43.595Z,102243.91
2022-10-04T07:12:16.434Z,102247.28
2022-10-04T07:14:51.957Z,102248.00
2022-10-04T07:17:26.907Z,102247.03
2022-10-04T07:19:54.564Z,102254.72
2022-10-04T07:22:42.020Z,102250.34
2022-10-04T07:25:24.208Z,102255.00
2022-10-04T07:28:27.371Z,102253.25
2022-10-04T07:31:05.304Z,102248.59
2022-10-04T07:33:54.605Z,102250.09
2022-10-04T07:36:43.211Z,102252.91
2022-10-04T07:39:22.006Z,102255.78
2022-10-04T07:41:54.569Z,102261.38
2022-10-04T07:44:34.028Z,102266.25
2022-10-04T07:47:09.249Z,102263.19
2022-10-04T07:49:39.414Z,102259.97
2022-10-04T07:52:28.545Z,102269.97
2022-10-04T07:55:07.134Z,102257.16
2022-10-04T07:57:55.261Z,102256.94
2022-10-04T08:00:41.500Z,102261.09
2022-10-04T08:03:46.436Z,102262.38
2022-10-04T08:06:26.440Z,102274.28
2022-10-04T08:09:26.620Z,102266.72
2022-10-04T08:12:06.658Z,102254.53
2022-10-04T08:14:39.404Z,102252.00
2022-10-04T08:17:31.074Z,102257.53
2022-10-04T08:20:25.308Z,102263.03
2022-10-04T08:23:22.628Z,102260.34
2022-10-04T08:26:07.627Z,102250.31
2022-10-04T08:29:34.728Z,102250.25
2022-10-04T08:32:13.184Z,102252.38
2022-10-04T08:34:45.433Z,102248.78
2022-10-04T08:37:38.029Z,102244.47
2022-10-04T08:40:13.600Z,102251.41
2022-10-04T08:42:45.955Z,102253.28
2022-10-04T08:45:48.158Z,102246.91
2022-10-04T08:48:39.274Z,102250.94
2022-10-04T08:51:08.548Z,102244.06
2022-10-04T08:53:53.527Z,102236.06
2022-10-04T08:56:38.637Z,102246.56
2022-10-04T08:59:39.858Z,102246.41
2022-10-04T09:02:30.707Z,102247.88
2022-10-04T09:05:32.365Z,102239.81
2022-10-04T09:08:30.416Z,102231.97
2022-10-04T09:11:15.380Z,102246.56
2022-10-04T09:14:09.674Z,102233.66
2022-10-04T09:16:46.600Z,102242.53
2022-10-04T09:19:38.962Z,102234.44
2022-10-04T09:22:40.834Z,102243.41
2022-10-04T09:25:29.318Z,102245.28
2022-10-04T09:28:20.960Z,102246.59
2022-10-04T09:30:56.243Z,102237.63
2022-10-04T09:34:04.339Z,102231.78
2022-10-04T09:37:01.902Z,102229.59
2022-10-04T09:39:48.832Z,102238.84
2022-10-04T09:42:33.546Z,102225.84
2022-10-04T09:45:06.245Z,102235.78
2022-10-04T09:47:40.984Z,102231.56
2022-10-04T09:50:37.321Z,102234.03
2022-10-04T09:53:19.998Z,102231.06
2022-10-04T09:56:07.747Z,102226.75
2022-10-04T09:59:13.536Z,102227.22
2022-10-04T10:02:29.017Z,102217.72
2022-10-04T10:05:31.584Z,102214.34
2022-10-04T10:08:03.979Z,102210.38
2022-10-04T10:11:14.748Z,102217.44
2022-10-04T10:13:59.607Z,102208.88
2022-10-04T10:16:40.769Z,102211.00
2022-10-04T10:19:37.418Z,102202.38
2022-10-04T10:22:40.249Z,102207.56
2022-10-04T10:25:38.946Z,102220.69
2022-10-04T10:28:20.276Z,102229.78
2022-10-04T10:31:08.590Z,102234.44
2022-10-04T10:33:53.048Z,102227.50
2022-10-04T10:36:51.924Z,102223.78
2022-10-04T10:39:33.134Z,102223.91
2022-10-04T10:42:38.798Z,102221.47
2022-10-04T10:45:35.394Z,102227.53
2022-10-04T10:48:13.353Z,102221.47
2022-10-04T10:51:10.352Z,102205.00
2022-10-04T10:53:43.903Z,102196.88
2022-10-04T10:56:13.178Z,102202.34
2022-10-04T10:59:08.846Z,102209.41
2022-10-04T11:01:50.493Z,102193.34
2022-10-04T11:04:45.800Z,102203.13
2022-10-04T11:07:43.683Z,102199.31
2022-10-04T11:10:19.066Z,102194.53
2022-10-04T11:13:08.747Z,102190.97
2022-10-04T11:16:07.694Z,102185.72
2022-10-04T11:18:58.518Z,102181.06
2022-10-04T11:21:36.631Z,102186.81
2022-10-04T11:24:28.783Z,102177.06
2022-10-04T11:26:55.805Z,102185.34
2022-10-04T11:29:25.136Z,102170.75
2022-10-04T11:32:00.462Z,102178.28
2022-10-04T11:35:12.487Z,102176.16
2022-10-04T11:38:06.670Z,102165.81
2022-10-04T11:40:54.544Z,102166.38
2022-10-04T11:43:36.435Z,102153.88
2022-10-04T11:46:23.846Z,102164.50
2022-10-04T11:49:06.085Z,102163.09
2022-10-04T11:52:02.149Z,102160.03
2022-10-04T11:54:47.702Z,102160.09
2022-10-04T11:57:38.317Z,102159.97
2022-10-04T12:00:18.062Z,102165.09
2022-10-04T12:03:14.429Z,102166.06
2022-10-04T12:06:03.853Z,102166.38
2022-10-04T12:09:09.349Z,102158.47
2022-10-04T12:12:28.079Z,102149.19
2022-10-04T12:15:30.154Z,102159.16
2022-10-04T12:18:17.833Z,102144.69
2022-10-04T12:21:13.673Z,102138.09
2022-10-04T12:24:09.102Z,102139.03
2022-10-04T12:26:52.687Z,102125.38
2022-10-04T12:29:45.193Z,102126.91
2022-10-04T12:32:35.307Z,102131.81
2022-10-04T12:35:19.445Z,102118.25
2022-10-04T12:38:08.422Z,102122.25
2022-10-04T12:40:48.826Z,102110.16
2022-10-04T12:43:40.102Z,102102.94
2022-10-04T12:46:12.513Z,102107.81
2022-10-04T12:49:08.572Z,102095.25
2022-10-04T12:51:34.817Z,102101.66
2022-10-04T12:54:13.441Z,102095.19
2022-10-04T12:57:04.000Z,102094.00
2022-10-04T12:59:43.641Z,102086.56
2022-10-04T13:02:35.084Z,102094.75
2022-10-04T13:05:13.944Z,102086.13
2022-10-04T13:08:18.309Z,102092.75
2022-10-04T13:11:09.482Z,102084.19
2022-10-04T13:14:01.107Z,102077.91
2022-10-04T13:20:06.428Z,102081.41
2022-10-04T13:22:56.426Z,102077.84
2022-10-04T13:25:41.277Z,102081.09
2022-10-04T13:28:31.813Z,102078.66
2022-10-04T13:31:23.842Z,102075.78
2022-10-04T13:34:09.351Z,102071.50
2022-10-04T13:37:14.013Z,102057.22
2022-10-04T13:39:53.424Z,102040.97
2022-10-04T13:42:33.325Z,102036.09
2022-10-04T13:45:21.552Z,102032.97
2022-10-04T13:48:09.249Z,102029.88
2022-10-04T13:50:58.943Z,102029.50
2022-10-04T13:53:53.990Z,102013.41
2022-10-04T13:56:40.111Z,102013.56
2022-10-04T13:59:18.600Z,102007.03
2022-10-04T14:02:29.754Z,101998.88
2022-10-04T14:05:10.600Z,102000.59
2022-10-04T14:08:14.813Z,102002.88
2022-10-04T14:10:53.289Z,102005.38
2022-10-04T14:13:50.561Z,101992.28
2022-10-04T14:16:41.743Z,101996.88
2022-10-04T14:19:30.584Z,101999.34
2022-10-04T14:22:09.037Z,102003.31
2022-10-04T14:24:35.443Z,101994.03
2022-10-04T14:27:24.834Z,101997.84
2022-10-04T14:30:09.914Z,102004.69
2022-10-04T14:32:45.793Z,102001.91
2022-10-04T14:35:12.066Z,101998.63
2022-10-04T14:37:57.369Z,102014.47
2022-10-04T14:40:45.406Z,102009.28
2022-10-04T14:43:30.512Z,101998.41
2022-10-04T14:46:25.012Z,102001.72
2022-10-04T14:48:59.241Z,101997.81
2022-10-04T14:51:32.215Z,102000.78
2022-10-04T14:54:26.814Z,102012.50
2022-10-04T14:57:04.064Z,102011.25
2022-10-04T15:00:15.728Z,102013.81
2022-10-04T15:03:03.005Z,102006.75
2022-10-04T15:05:44.308Z,102017.31
2022-10-04T15:08:24.234Z,102019.41
2022-10-04T15:11:16.833Z,102016.69
2022-10-04T15:13:55.802Z,102014.38
2022-10-04T15:16:31.033Z,102013.47
2022-10-04T15:19:04.031Z,102015.41
2022-10-04T15:21:50.991Z,102010.44
2022-10-04T15:24:17.493Z,102014.25
2022-10-04T15:26:59.093Z,102016.94
2022-10-04T15:29:32.837Z,102022.06
2022-10-04T15:32:16.727Z,102014.72
2022-10-04T15:35:06.697Z,101999.06
2022-10-04T15:37:49.841Z,102007.19
2022-10-04T15:40:25.113Z,102003.09
2022-10-04T15:43:20.468Z,102006.00
2022-10-04T15:46:00.779Z,102007.41
2022-10-04T15:48:53.781Z,102003.28
2022-10-04T15:51:41.520Z,101994.41
2022-10-04T15:54:13.736Z,101995.63
2022-10-04T15:56:39.985Z,101992.81
2022-10-04T15:59:28.639Z,101994.09
2022-10-04T16:02:21.218Z,101992.97
2022-10-04T16:05:14.045Z,101991.38
2022-10-04T16:08:02.032Z,101998.03
2022-10-04T16:10:58.414Z,102005.25
2022-10-04T16:13:39.061Z,102007.22
2022-10-04T16:16:17.894Z,101992.41
2022-10-04T16:18:51.276Z,102000.09
2022-10-04T16:21:42.612Z,102007.72
2022-10-04T16:24:45.547Z,102006.19
2022-10-04T16:27:26.696Z,102011.69
2022-10-04T16:30:27.191Z,102006.59
2022-10-04T16:33:26.780Z,102014.78
2022-10-04T16:36:20.456Z,102007.56
2022-10-04T16:39:07.985Z,102009.47
2022-10-04T16:41:41.259Z,102008.25
2022-10-04T16:44:28.998Z,102011.19
2022-10-04T16:47:00.124Z,102009.22
2022-10-04T16:49:41.241Z,102011.13
2022-10-04T16:52:35.112Z,102010.09
2022-10-04T16:55:24.075Z,102019.97
2022-10-04T16:58:27.296Z,102015.69
2022-10-04T17:01:29.579Z,102021.63
2022-10-04T17:04:14.767Z,102009.47
2022-10-04T17:06:54.261Z,102014.50
2022-10-04T17:10:05.824Z,102006.50
2022-10-04T17:13:00.123Z,102014.91
2022-10-04T17:15:48.484Z,102019.28
2022-10-04T17:18:38.442Z,102015.25
2022-10-04T17:21:22.776Z,102019.59
2022-10-04T17:24:38.680Z,102014.94
2022-10-04T17:27:56.266Z,102015.81
2022-10-04T17:30:26.344Z,102008.81
2022-10-04T17:32:58.563Z,102014.00
2022-10-04T17:36:02.265Z,102017.56
2022-10-04T17:38:44.633Z,102004.41
2022-10-04T17:41:10.891Z,102004.41
2022-10-04T17:43:55.904Z,101998.22
2022-10-04T17:46:29.281Z,102003.06
2022-10-04T17:49:20.537Z,102010.94
2022-10-04T17:52:08.261Z,102016.63
2022-10-04T17:55:16.615Z,102016.41
2022-10-04T17:58:23.137Z,102019.34
2022-10-04T18:01:19.215Z,102020.66
2022-10-04T18:03:52.347Z,102013.69
2022-10-04T18:06:43.030Z,102015.34
2022-10-04T18:09:30.767Z,102003.97
2022-10-04T18:12:04.986Z,102003.75
2022-10-04T18:15:21.021Z,101990.19
2022-10-04T18:17:50.547Z,101999.94
2022-10-04T18:20:29.209Z,102002.13
2022-10-04T18:23:01.581Z,102010.53
2022-10-04T18:25:31.073Z,102009.16
2022-10-04T18:28:09.624Z,102006.22
2022-10-04T18:30:48.452Z,102011.94
2022-10-04T18:33:25.904Z,102003.56
2022-10-04T18:36:24.606Z,102013.03
2022-10-04T18:39:21.886Z,102009.78
2022-10-04T18:42:16.172Z,102006.28
2022-10-04T18:45:18.656Z,102005.16
2022-10-04T18:47:45.148Z,102000.34
2022-10-04T18:50:17.844Z,101994.91
2022-10-04T18:53:13.473Z,102000.06
2022-10-04T18:56:04.465Z,102003.06
2022-10-04T18:58:58.647Z,102000.09
2022-10-04T19:01:59.843Z,101993.91
2022-10-04T19:04:42.666Z,101993.09
2022-10-04T19:07:14.131Z,101986.88
2022-10-04T19:09:52.798Z,101978.53
2022-10-04T19:12:25.658Z,101970.97
2022-10-04T19:15:00.505Z,101964.72
2022-10-04T19:17:38.156Z,101954.75
2022-10-04T19:20:18.700Z,101953.41
2022-10-04T19:23:07.119Z,101940.69
2022-10-04T19:25:40.904Z,101943.94
2022-10-04T19:28:18.442Z,101936.91
2022-10-04T19:31:31.525Z,101936.38
2022-10-04T19:34:11.679Z,101939.38
2022-10-04T19:36:46.257Z,101932.88
2022-10-04T19:39:51.563Z,101943.72
2022-10-04T19:42:39.668Z,101941.53
2022-10-04T19:45:25.741Z,101945.34
2022-10-04T19:48:12.698Z,101941.59
2022-10-04T19:50:52.065Z,101932.94
2022-10-04T19:53:23.499Z,101936.19
2022-10-04T19:55:56.986Z,101937.50
2022-10-04T19:58:37.789Z,101947.25
2022-10-04T20:01:11.689Z,101950.81
2022-10-04T20:03:38.669Z,101956.22
2022-10-04T20:06:07.385Z,101948.09
2022-10-04T20:08:52.617Z,101940.81
2022-10-04T20:11:25.773Z,101947.00
2022-10-04T20:14:07.132Z,101948.38
2022-10-04T20:16:49.738Z,101956.25
2022-10-04T20:19:45.603Z,101953.25
2022-10-04T20:22:11.875Z,101954.63
2022-10-04T20:24:38.218Z,101959.22
2022-10-04T20:27:28.250Z,101952.44
2022-10-04T20:29:55.977Z,101951.13
2022-10-04T20:32:34.169Z,101956.00
2022-10-04T20:35:02.772Z,101941.13
2022-10-04T20:37:44.223Z,101945.44
2022-10-04T20:40:31.505Z,101943.31
2022-10-04T20:43:13.176Z,101943.31
2022-10-04T20:45:46.370Z,101946.28
2022-10-04T20:48:18.417Z,101958.47
2022-10-04T20:50:49.272Z,101951.97
2022-10-04T20:53:20.867Z,101949.25
2022-10-04T20:55:48.143Z,101954.13
2022-10-04T20:58:35.145Z,101969.28
2022-10-04T21:01:31.535Z,101967.41
2022-10-04T21:04:34.045Z,101968.47
2022-10-04T21:07:05.908Z,101965.25
2022-10-04T21:09:34.333Z,101967.41
2022-10-04T21:12:01.725Z,101974.44
2022-10-04T21:14:27.989Z,101973.91
2022-10-04T21:17:02.208Z,101971.47
2022-10-04T21:19:32.315Z,101969.56
2022-10-04T21:22:01.291Z,101971.47
2022-10-04T21:24:40.733Z,101974.72
2022-10-04T21:27:12.838Z,101981.47
2022-10-04T21:29:39.674Z,101977.44
2022-10-04T21:32:06.170Z,101979.34
2022-10-04T21:34:52.479Z,101981.50
2022-10-04T21:37:19.622Z,101985.00
2022-10-04T21:39:46.057Z,101975.00
2022-10-04T21:42:12.484Z,101981.22
2022-10-04T21:44:38.822Z,101969.88
2022-10-04T21:47:05.212Z,101977.97
2022-10-04T21:49:31.529Z,101967.16
2022-10-04T21:51:57.837Z,101959.06
2022-10-04T21:54:24.183Z,101962.59
2022-10-04T21:56:50.540Z,101959.06
2022-10-04T21:59:16.856Z,101963.13
2022-10-04T22:01:43.175Z,101957.97
2022-10-04T22:04:09.510Z,101967.69
2022-10-04T22:06:35.876Z,101954.47
2022-10-04T22:09:02.212Z,101960.13
2022-10-04T22:11:28.595Z,101949.31
2022-10-04T22:13:54.924Z,101947.44
2022-10-04T22:16:21.318Z,101952.03
2022-10-04T22:18:47.736Z,101942.59
2022-10-04T22:21:14.525Z,101941.78
2022-10-04T22:23:43.260Z,101933.16
2022-10-04T22:26:12.186Z,101931.28
2022-10-04T22:28:43.056Z,101927.75
2022-10-04T22:31:14.576Z,101933.16
2022-10-04T22:33:43.500Z,101920.47
2022-10-04T22:36:31.243Z,101923.44
2022-10-04T22:38:58.725Z,101913.69
2022-10-04T22:41:33.816Z,101914.25
2022-10-04T22:44:10.203Z,101909.94
2022-10-04T22:46:40.634Z,101919.41
2022-10-04T22:49:12.224Z,101911.28
2022-10-04T22:51:41.324Z,101904.28
2022-10-04T22:54:12.967Z,101912.66
2022-10-04T22:56:40.395Z,101904.00
2022-10-04T22:59:10.799Z,101902.13
2022-10-04T23:01:37.927Z,101911.03
2022-10-04T23:04:11.841Z,101895.91
2022-10-04T23:06:38.141Z,101891.59
2022-10-04T23:09:04.475Z,101894.28
2022-10-04T23:11:31.936Z,101896.19
2022-10-04T23:13:58.499Z,101899.97
2022-10-04T23:16:25.152Z,101901.06
2022-10-04T23:19:00.533Z,101889.44
2022-10-04T23:21:31.753Z,101899.44
2022-10-04T23:24:05.441Z,101898.09
2022-10-04T23:26:37.136Z,101910.78
2022-10-04T23:29:06.986Z,101908.91
2022-10-04T23:31:36.955Z,101915.09
2022-10-04T23:34:16.284Z,101906.22
2022-10-04T23:36:42.629Z,101894.88
2022-10-04T23:39:13.732Z,101896.75
2022-10-04T23:41:40.281Z,101906.75
2022-10-04T23:44:13.167Z,101906.75
2022-10-04T23:46:39.656Z,101896.75
2022-10-04T23:49:09.204Z,101900.28
2022-10-04T23:51:35.733Z,101884.88
2022-10-04T23:54:02.077Z,101886.78
2022-10-04T23:56:29.432Z,101895.41
2022-10-04T23:58:58.595Z,101893.50
